Betsiamites, Canada
Current Conditions -  °F | °C
As of 10:29 PM on Monday 22 Dec 2014 (Local Time) from CYBC Reporting Station
Overcast Overcast  
Wind Chill: 21°   Ceiling: 2300
Heat Index: 21°   Visibility: 9mi
Dew Point: 18°   Wind: 0mph
Humidity: 86%   Direction: NA
Pressure: 30.42"   Gusts: NA
Location:  48.95°N, 68.65°W
Report Text: CYBC 230329Z AUTO 00000KT 9SM OVC023 M06/M08 A3042 RMK SLP302
Loading
Personal Weather Stations






























Interactive Weather Map New forecast layout! Learn more

10-Day Weather Forecast

Advertisements
Track Severe Weather on mobile